Amherst, Nebraska
Current Conditions -  °F | °C
As of 9:35 PM on Friday 19 Dec 2014 (Local Time) from KEAR Reporting Station
Overcast Overcast  
Wind Chill: -3°   Ceiling: 200
Heat Index: -3°   Visibility: 0mi
Dew Point: -4°   Wind: 0mph
Humidity: 93%   Direction: NA
Pressure: 30.03"   Gusts: NA
Location:  40.77°N, 99.27°W
Report Text: KEAR 200335Z 00000KT M1/4SM OVC002 M03/M04 A3003 RMK AO1
Loading
Personal Weather Stations






























Interactive Weather Map New forecast layout! Learn more

10-Day Weather Forecast

Advertisements
Track Severe Weather on mobile